| Date | Time | Temp. (oF) | Dew Point (oF) | Rel. Hum. (%) | Press. (in.) | Wind Dir. (deg.) | Wind Speed (mph) | Hourly Rainfall (i n.) |
|
|---|---|---|---|---|---|---|---|---|---|
| 1 | 10/09 | 24:00 | 56 | 49 | 80 | 30.45 | 150 | 1 | 0.00 |
| 2 | 10/08 | 23:00 | 55 | 47 | 77 | 30.46 | 150 | 0 | 0.00 |
| 3 | 10/08 | 22:00 | 54 | 46 | 76 | 30.47 | 150 | 0 | 0.00 |
| 4 | 10/08 | 21:00 | 55 | 46 | 73 | 30.48 | 150 | 1 | 0.00 |
| 5 | 10/08 | 20:00 | 57 | 46 | 69 | 30.50 | 130 | 0 | 0.00 |
| 6 | 10/08 | 19:00 | 58 | 47 | 68 | 30.49 | 130 | 2 | 0.00 |
| 7 | 10/08 | 18:00 | 60 | 47 | 63 | 30.51 | 180 | 4 | 0.00 |
| 8 | 10/08 | 17:00 | 61 | 46 | 59 | 30.54 | 150 | 2 | 0.00 |
| 9 | 10/08 | 16:00 | 63 | 46 | 54 | 30.55 | 100 | 6 | 0.00 |
| 10 | 10/08 | 15:00 | 62 | 44 | 53 | 30.56 | 110 | 4 | 0.00 |
| 11 | 10/08 | 14:00 | 62 | 45 | 54 | 30.57 | 210 | 4 | 0.00 |
| 12 | 10/08 | 13:00 | 61 | 44 | 55 | 30.58 | 160 | 6 | 0.00 |
| 13 | 10/08 | 12:00 | 59 | 42 | 55 | 30.59 | 190 | 2 | 0.00 |
| 14 | 10/08 | 11:00 | 55 | 40 | 58 | 30.60 | 220 | 6 | 0.00 |
| 15 | 10/08 | 10:00 | 47 | 41 | 80 | 30.59 | 350 | 2 | 0.00 |
| 16 | 10/08 | 09:00 | 42 | 37 | 84 | 30.59 | 350 | 0 | 0.00 |
| 17 | 10/08 | 08:00 | 39 | 34 | 83 | 30.59 | 350 | 0 | 0.00 |
| 18 | 10/08 | 07:00 | 39 | 33 | 81 | 30.58 | 350 | 0 | 0.00 |
| 19 | 10/08 | 06:00 | 39 | 33 | 82 | 30.58 | 350 | 0 | 0.00 |
| 20 | 10/08 | 05:00 | 39 | 33 | 81 | 30.59 | 350 | 0 | 0.00 |
| 21 | 10/08 | 04:00 | 40 | 34 | 81 | 30.58 | 350 | 0 | 0.00 |
| 22 | 10/08 | 03:00 | 41 | 35 | 82 | 30.58 | 350 | 0 | 0.00 |
| 23 | 10/08 | 02:00 | 42 | 36 | 81 | 30.59 | 350 | 0 | 0.00 |
| 24 | 10/08 | 01:00 | 42 | 36 | 81 | 30.59 | 350 | 0 | 0.00 |